createdAt,value
2018-03-30T00:00:45.318Z,5.00
2018-03-30T00:03:12.827Z,5.00
2018-03-30T00:05:41.128Z,5.00
2018-03-30T00:08:08.643Z,5.00
2018-03-30T00:10:41.792Z,5.10
2018-03-30T00:13:10.090Z,5.10
2018-03-30T00:15:37.605Z,5.10
2018-03-30T00:18:05.932Z,5.10
2018-03-30T00:20:34.258Z,5.10
2018-03-30T00:23:01.830Z,5.10
2018-03-30T00:25:29.477Z,5.10
2018-03-30T00:27:57.015Z,5.10
2018-03-30T00:30:24.516Z,5.10
2018-03-30T00:32:52.056Z,5.10
2018-03-30T00:35:19.592Z,5.00
2018-03-30T00:37:47.120Z,5.10
2018-03-30T00:40:15.395Z,5.10
2018-03-30T00:42:42.943Z,5.10
2018-03-30T00:45:10.465Z,5.10
2018-03-30T00:47:38.051Z,5.10
2018-03-30T00:50:05.595Z,5.10
2018-03-30T00:52:33.944Z,5.10
2018-03-30T00:55:01.523Z,5.10
2018-03-30T00:57:29.110Z,5.10
2018-03-30T00:59:56.634Z,5.10
2018-03-30T01:02:24.147Z,5.10
2018-03-30T01:04:51.680Z,5.10
2018-03-30T01:07:19.228Z,5.00
2018-03-30T01:09:46.782Z,5.10
2018-03-30T01:12:15.060Z,5.00
2018-03-30T01:14:43.364Z,5.00
2018-03-30T01:17:11.663Z,5.00
2018-03-30T01:19:39.177Z,5.00
2018-03-30T01:22:06.721Z,5.00
2018-03-30T01:24:34.324Z,5.10
2018-03-30T01:27:02.678Z,5.10
2018-03-30T01:29:30.271Z,5.10
2018-03-30T01:31:57.824Z,5.20
2018-03-30T01:34:25.388Z,5.20
2018-03-30T01:36:53.670Z,5.20
2018-03-30T01:39:21.207Z,5.20
2018-03-30T01:41:48.778Z,5.20
2018-03-30T01:44:17.086Z,5.20
2018-03-30T01:46:45.356Z,5.10
2018-03-30T01:49:12.888Z,5.10
2018-03-30T01:51:40.428Z,5.20
2018-03-30T01:54:08.024Z,5.20
2018-03-30T01:56:35.592Z,5.30
2018-03-30T01:59:03.313Z,5.20
2018-03-30T02:01:30.865Z,5.30
2018-03-30T02:03:59.348Z,5.30
2018-03-30T02:06:26.901Z,5.20
2018-03-30T02:08:54.423Z,5.20
2018-03-30T02:11:22.707Z,5.20
2018-03-30T02:13:50.258Z,5.20
2018-03-30T02:16:17.797Z,5.30
2018-03-30T02:18:46.095Z,5.30
2018-03-30T02:21:13.618Z,5.30
2018-03-30T02:23:41.896Z,5.30
2018-03-30T02:26:09.424Z,5.30
2018-03-30T02:28:36.930Z,5.30
2018-03-30T02:31:04.476Z,5.30
2018-03-30T02:33:32.088Z,5.30
2018-03-30T02:35:59.688Z,5.30
2018-03-30T02:38:27.248Z,5.30
2018-03-30T02:40:54.799Z,5.40
2018-03-30T02:43:23.084Z,5.30
2018-03-30T02:45:51.484Z,5.40
2018-03-30T02:48:19.786Z,5.40
2018-03-30T02:50:47.295Z,5.30
2018-03-30T02:53:14.828Z,5.30
2018-03-30T02:55:42.344Z,5.40
2018-03-30T02:58:10.248Z,5.40
2018-03-30T03:00:37.780Z,5.40
2018-03-30T03:03:05.305Z,5.30
2018-03-30T03:05:32.978Z,5.30
2018-03-30T03:08:01.349Z,5.30
2018-03-30T03:10:28.954Z,5.30
2018-03-30T03:12:56.467Z,5.30
2018-03-30T03:15:24.588Z,5.30
2018-03-30T03:17:52.901Z,5.30
2018-03-30T03:20:20.450Z,5.30
2018-03-30T03:22:47.960Z,5.30
2018-03-30T03:25:15.466Z,5.30
2018-03-30T03:27:42.996Z,5.30
2018-03-30T03:30:10.502Z,5.30
2018-03-30T03:32:38.028Z,5.20
2018-03-30T03:35:05.567Z,5.20
2018-03-30T03:37:33.146Z,5.20
2018-03-30T03:40:01.434Z,5.20
2018-03-30T03:42:29.026Z,5.10
2018-03-30T03:44:57.383Z,5.20
2018-03-30T03:47:24.915Z,5.20
2018-03-30T03:49:52.680Z,5.20
2018-03-30T03:52:20.228Z,5.20
2018-03-30T03:54:47.771Z,5.20
2018-03-30T03:57:15.280Z,5.30
2018-03-30T03:59:42.812Z,5.30
2018-03-30T04:02:10.324Z,5.30
2018-03-30T04:04:37.859Z,5.30
2018-03-30T04:07:05.368Z,5.30
2018-03-30T04:09:32.925Z,5.30
2018-03-30T04:12:00.461Z,5.30
2018-03-30T04:14:28.079Z,5.30
2018-03-30T04:16:55.623Z,5.30
2018-03-30T04:19:23.903Z,5.30
2018-03-30T04:21:52.231Z,5.40
2018-03-30T04:24:19.780Z,5.30
2018-03-30T04:26:47.324Z,5.40
2018-03-30T04:29:14.831Z,5.40
2018-03-30T04:31:42.357Z,5.30
2018-03-30T04:34:09.873Z,5.40
2018-03-30T04:36:37.450Z,5.30
2018-03-30T04:39:06.056Z,5.30
2018-03-30T04:41:33.639Z,5.20
2018-03-30T04:44:01.212Z,5.20
2018-03-30T04:46:28.799Z,5.20
2018-03-30T04:48:56.345Z,5.10
2018-03-30T04:51:23.843Z,5.20
2018-03-30T04:53:52.876Z,5.10
2018-03-30T04:56:21.191Z,5.10
2018-03-30T04:58:49.357Z,5.10
2018-03-30T05:01:17.631Z,5.20
2018-03-30T05:03:45.942Z,5.20
2018-03-30T05:06:14.219Z,5.20
2018-03-30T05:08:42.530Z,5.20
2018-03-30T05:11:10.035Z,5.20
2018-03-30T05:13:37.540Z,5.20
2018-03-30T05:16:05.101Z,5.30
2018-03-30T05:18:32.672Z,5.40
2018-03-30T05:21:01.003Z,5.40
2018-03-30T05:23:28.610Z,5.40
2018-03-30T05:25:56.160Z,5.40
2018-03-30T05:28:23.682Z,5.50
2018-03-30T05:30:51.203Z,5.50
2018-03-30T05:33:18.720Z,5.40
2018-03-30T05:35:46.264Z,5.40
2018-03-30T05:38:13.780Z,5.40
2018-03-30T05:40:42.079Z,5.40
2018-03-30T05:43:09.587Z,5.40
2018-03-30T05:45:37.116Z,5.40
2018-03-30T05:48:05.424Z,5.50
2018-03-30T05:50:32.946Z,5.50
2018-03-30T05:53:01.328Z,5.50
2018-03-30T05:55:28.869Z,5.50
2018-03-30T05:57:56.397Z,5.50
2018-03-30T06:00:24.712Z,5.60
2018-03-30T06:02:52.263Z,5.60
2018-03-30T06:05:20.619Z,5.80
2018-03-30T06:07:49.796Z,5.90
2018-03-30T06:10:17.317Z,5.90
2018-03-30T06:12:44.880Z,6.00
2018-03-30T06:15:12.399Z,6.10
2018-03-30T06:17:39.907Z,6.20
2018-03-30T06:20:07.439Z,6.30
2018-03-30T06:22:34.986Z,6.40
2018-03-30T06:25:03.313Z,6.40
2018-03-30T06:27:30.898Z,6.50
2018-03-30T06:29:59.276Z,6.50
2018-03-30T06:32:26.865Z,6.50
2018-03-30T06:34:55.234Z,6.50
2018-03-30T06:37:22.756Z,6.50
2018-03-30T06:39:50.307Z,6.50
2018-03-30T06:42:17.839Z,6.60
2018-03-30T06:44:45.357Z,6.70
2018-03-30T06:47:12.888Z,6.70
2018-03-30T06:49:40.391Z,6.80
2018-03-30T06:52:07.928Z,6.80
2018-03-30T06:54:35.443Z,6.90
2018-03-30T06:57:03.064Z,6.90
2018-03-30T06:59:30.710Z,6.90
2018-03-30T07:01:58.279Z,6.90
2018-03-30T07:04:27.248Z,7.10
2018-03-30T07:06:54.755Z,7.10
2018-03-30T07:09:23.047Z,7.50
2018-03-30T07:11:51.322Z,7.80
2018-03-30T07:14:18.862Z,7.80
2018-03-30T07:16:46.386Z,8.00
2018-03-30T07:19:13.925Z,8.30
2018-03-30T07:21:41.480Z,8.50
2018-03-30T07:24:09.013Z,8.70
2018-03-30T07:26:36.551Z,9.00
2018-03-30T07:29:04.109Z,9.20
2018-03-30T07:31:31.791Z,9.20
2018-03-30T07:34:00.234Z,9.50
2018-03-30T07:36:27.764Z,9.50
2018-03-30T07:38:56.185Z,9.70
2018-03-30T07:41:23.723Z,9.70
2018-03-30T07:43:52.098Z,10.10
2018-03-30T07:46:19.715Z,10.10
2018-03-30T07:48:47.263Z,10.30
2018-03-30T07:51:15.572Z,10.30
2018-03-30T07:53:44.124Z,10.30
2018-03-30T07:56:11.696Z,10.40
2018-03-30T07:58:39.992Z,10.10
2018-03-30T08:01:07.580Z,10.10
2018-03-30T08:03:35.883Z,10.20
2018-03-30T08:06:03.419Z,10.10
2018-03-30T08:08:31.011Z,10.10
2018-03-30T08:10:59.346Z,9.90
2018-03-30T08:13:26.880Z,9.90
2018-03-30T08:15:55.217Z,10.40
2018-03-30T08:18:22.784Z,10.40
2018-03-30T08:20:50.448Z,10.40
2018-03-30T08:23:18.035Z,10.60
2018-03-30T08:25:45.552Z,10.90
2018-03-30T08:28:13.850Z,10.90
2018-03-30T08:30:42.131Z,11.20
2018-03-30T08:33:10.436Z,11.30
2018-03-30T08:35:38.707Z,11.40
2018-03-30T08:38:07.018Z,11.50
2018-03-30T08:40:34.606Z,11.50
2018-03-30T08:43:02.151Z,11.60
2018-03-30T08:45:29.765Z,11.80
2018-03-30T08:47:57.291Z,11.90
2018-03-30T08:50:25.595Z,12.40
2018-03-30T08:52:53.113Z,12.30
2018-03-30T08:55:20.665Z,12.60
2018-03-30T08:57:48.364Z,12.70
2018-03-30T09:00:15.914Z,12.70
2018-03-30T09:02:44.187Z,13.10
2018-03-30T09:05:11.710Z,13.00
2018-03-30T09:07:39.240Z,13.30
2018-03-30T09:10:06.761Z,13.10
2018-03-30T09:12:35.103Z,12.90
2018-03-30T09:15:02.686Z,12.90
2018-03-30T09:17:30.350Z,12.90
2018-03-30T09:19:57.892Z,13.10
2018-03-30T09:22:25.486Z,13.20
2018-03-30T09:24:53.003Z,13.30
2018-03-30T09:27:20.571Z,13.30
2018-03-30T09:29:53.791Z,13.40
2018-03-30T09:32:22.159Z,13.60
2018-03-30T09:34:49.714Z,13.60
2018-03-30T09:37:18.024Z,13.80
2018-03-30T09:39:45.559Z,13.80
2018-03-30T09:42:13.072Z,13.80
2018-03-30T09:44:41.369Z,13.80
2018-03-30T09:47:09.644Z,14.10
2018-03-30T09:49:37.947Z,14.20
2018-03-30T09:52:05.563Z,14.10
2018-03-30T09:54:33.123Z,14.20
2018-03-30T09:57:00.759Z,14.30
2018-03-30T09:59:28.319Z,14.50
2018-03-30T10:01:56.632Z,14.40
2018-03-30T10:04:34.134Z,14.50
2018-03-30T10:07:01.751Z,14.70
2018-03-30T10:09:29.309Z,14.90
2018-03-30T10:11:56.842Z,15.10
2018-03-30T10:14:25.685Z,15.00
2018-03-30T10:17:00.454Z,15.00
2018-03-30T10:19:30.454Z,14.80
2018-03-30T10:22:10.986Z,14.80
2018-03-30T10:24:40.433Z,14.80
2018-03-30T10:27:14.619Z,14.80
2018-03-30T10:29:42.896Z,14.90
2018-03-30T10:32:10.415Z,14.90
2018-03-30T10:34:38.020Z,15.10
2018-03-30T10:39:39.575Z,15.40
2018-03-30T10:42:07.093Z,15.80
2018-03-30T10:44:34.777Z,15.60
2018-03-30T10:47:02.539Z,15.40
2018-03-30T10:49:30.163Z,15.80
2018-03-30T10:51:57.962Z,16.20
2018-03-30T10:54:26.108Z,16.40
2018-03-30T10:56:53.721Z,16.40
2018-03-30T10:59:21.235Z,16.70
2018-03-30T11:01:49.667Z,17.10
2018-03-30T11:04:17.344Z,17.00
2018-03-30T11:06:44.882Z,17.40
2018-03-30T11:09:13.163Z,17.40
2018-03-30T11:11:41.540Z,17.60
2018-03-30T11:14:09.019Z,17.60
2018-03-30T11:16:36.527Z,17.70
2018-03-30T11:19:04.106Z,17.50
2018-03-30T11:21:31.648Z,17.60
2018-03-30T11:23:59.266Z,17.50
2018-03-30T11:26:26.788Z,17.70
2018-03-30T11:28:55.091Z,17.50
2018-03-30T11:31:22.605Z,17.50
2018-03-30T11:33:50.158Z,17.50
2018-03-30T11:36:17.711Z,17.90
2018-03-30T11:38:45.255Z,17.90
2018-03-30T11:41:13.532Z,18.40
2018-03-30T11:43:41.062Z,18.40
2018-03-30T11:46:08.588Z,18.80
2018-03-30T11:48:36.875Z,18.90
2018-03-30T11:51:05.284Z,18.10
2018-03-30T11:53:32.823Z,18.10
2018-03-30T11:56:01.208Z,18.00
2018-03-30T11:58:28.744Z,17.90
2018-03-30T12:00:56.275Z,17.90
2018-03-30T12:03:24.551Z,18.20
2018-03-30T12:05:52.238Z,18.20
2018-03-30T12:08:19.776Z,17.40
2018-03-30T12:10:47.299Z,17.30
2018-03-30T12:13:14.837Z,17.00
2018-03-30T12:15:43.110Z,16.10
2018-03-30T12:18:10.641Z,16.00
2018-03-30T12:20:38.151Z,16.00
2018-03-30T12:23:05.739Z,16.00
2018-03-30T12:25:34.043Z,15.60
2018-03-30T12:28:01.731Z,15.60
2018-03-30T12:30:29.290Z,15.60
2018-03-30T12:32:56.826Z,15.40
2018-03-30T12:35:24.552Z,15.30
2018-03-30T12:37:52.091Z,15.20
2018-03-30T12:40:20.440Z,15.10
2018-03-30T12:42:47.983Z,15.10
2018-03-30T12:45:15.524Z,15.00
2018-03-30T12:47:43.802Z,15.10
2018-03-30T12:50:11.340Z,15.00
2018-03-30T12:52:38.849Z,15.30
2018-03-30T12:55:07.154Z,15.30
2018-03-30T12:57:34.718Z,15.20
2018-03-30T13:00:02.308Z,15.00
2018-03-30T13:02:29.859Z,14.90
2018-03-30T13:04:57.408Z,14.70
2018-03-30T13:07:24.950Z,14.70
2018-03-30T13:09:52.471Z,14.90
2018-03-30T13:12:20.782Z,14.90
2018-03-30T13:14:48.296Z,14.80
2018-03-30T13:17:15.832Z,14.80
2018-03-30T13:19:43.336Z,14.70
2018-03-30T13:22:10.875Z,14.90
2018-03-30T13:24:38.396Z,14.80
2018-03-30T13:27:06.956Z,14.80
2018-03-30T13:29:34.519Z,14.80
2018-03-30T13:32:02.094Z,14.60
2018-03-30T13:34:29.713Z,14.40
2018-03-30T13:36:58.011Z,14.20
2018-03-30T13:39:25.547Z,14.20
2018-03-30T13:41:53.123Z,14.10
2018-03-30T13:44:20.688Z,14.00
2018-03-30T13:46:48.211Z,13.90
2018-03-30T13:49:15.743Z,13.90
2018-03-30T13:51:51.794Z,13.80
2018-03-30T13:54:33.998Z,13.70
2018-03-30T13:57:14.289Z,13.70
2018-03-30T13:59:42.584Z,13.70
2018-03-30T14:02:40.572Z,13.70
2018-03-30T14:08:07.259Z,13.80
2018-03-30T14:10:36.600Z,13.80
2018-03-30T14:13:05.653Z,13.90
2018-03-30T14:15:50.531Z,13.80
2018-03-30T14:18:21.911Z,13.90
2018-03-30T14:20:50.287Z,14.00
2018-03-30T14:23:22.359Z,14.00
2018-03-30T14:26:16.600Z,14.00
2018-03-30T14:28:46.729Z,14.10
2018-03-30T14:34:31.023Z,14.00
2018-03-30T14:37:03.194Z,13.90
2018-03-30T14:39:30.803Z,13.90
2018-03-30T14:41:58.372Z,13.80
2018-03-30T14:44:36.408Z,13.60
2018-03-30T14:47:05.358Z,13.60
2018-03-30T14:49:34.785Z,13.50
2018-03-30T14:52:16.009Z,13.30
2018-03-30T14:54:53.894Z,13.20
2018-03-30T14:57:31.400Z,13.20
2018-03-30T15:00:08.673Z,13.10
2018-03-30T15:02:39.016Z,12.90
2018-03-30T15:05:19.229Z,12.90
2018-03-30T15:07:51.471Z,12.90
2018-03-30T15:10:22.816Z,12.80
2018-03-30T15:12:56.058Z,12.70
2018-03-30T15:15:30.225Z,12.60
2018-03-30T15:18:11.563Z,12.60
2018-03-30T15:20:42.707Z,12.50
2018-03-30T15:23:11.151Z,12.50
2018-03-30T15:25:48.587Z,12.50
2018-03-30T15:28:17.079Z,12.50
2018-03-30T15:30:57.020Z,12.50
2018-03-30T15:33:30.420Z,12.60
2018-03-30T15:36:02.513Z,12.50
2018-03-30T15:38:30.846Z,12.40
2018-03-30T15:40:58.419Z,12.40
2018-03-30T15:43:29.896Z,12.30
2018-03-30T15:49:00.032Z,12.30
2018-03-30T15:51:28.911Z,12.30
2018-03-30T15:53:56.012Z,12.30
2018-03-30T15:56:23.564Z,12.30
2018-03-30T15:58:51.136Z,12.30
2018-03-30T16:01:18.658Z,12.20
2018-03-30T16:03:46.963Z,12.10
2018-03-30T16:06:14.471Z,12.10
2018-03-30T16:08:42.006Z,12.10
2018-03-30T16:11:15.298Z,12.10
2018-03-30T16:13:42.831Z,12.10
2018-03-30T16:16:10.363Z,12.00
2018-03-30T16:18:49.799Z,12.00
2018-03-30T16:21:16.836Z,12.00
2018-03-30T16:23:44.624Z,12.00
2018-03-30T16:26:15.297Z,12.00
2018-03-30T16:28:42.320Z,12.00
2018-03-30T16:31:10.119Z,12.10
2018-03-30T16:33:37.171Z,12.10
2018-03-30T16:36:04.267Z,12.10
2018-03-30T16:38:31.307Z,12.10
2018-03-30T16:40:58.383Z,12.00
2018-03-30T16:43:25.414Z,12.00
2018-03-30T16:45:52.468Z,11.90
2018-03-30T16:48:19.515Z,11.90
2018-03-30T16:50:46.575Z,11.90
2018-03-30T16:53:13.608Z,11.80
2018-03-30T16:55:40.652Z,11.80
2018-03-30T16:58:07.681Z,11.70
2018-03-30T17:00:35.291Z,11.70
2018-03-30T17:03:02.332Z,11.70
2018-03-30T17:05:29.457Z,11.70
2018-03-30T17:07:56.481Z,11.60
2018-03-30T17:10:23.498Z,11.60
2018-03-30T17:12:50.540Z,11.50
2018-03-30T17:15:17.575Z,11.50
2018-03-30T17:20:59.867Z,11.40
2018-03-30T17:23:26.915Z,11.30
2018-03-30T17:25:54.268Z,11.20
2018-03-30T17:28:21.302Z,11.30
2018-03-30T17:30:49.135Z,11.20
2018-03-30T17:33:16.196Z,11.20
2018-03-30T17:35:43.217Z,11.20
2018-03-30T17:38:10.253Z,11.20
2018-03-30T17:40:38.031Z,11.20
2018-03-30T17:43:05.834Z,11.10
2018-03-30T17:45:32.897Z,11.10
2018-03-30T17:47:59.951Z,11.20
2018-03-30T17:50:33.279Z,11.10
2018-03-30T17:53:05.309Z,11.10
2018-03-30T17:55:32.363Z,11.10
2018-03-30T17:57:59.419Z,11.10
2018-03-30T18:00:26.439Z,11.00
2018-03-30T18:02:54.241Z,11.00
2018-03-30T18:05:21.279Z,11.00
2018-03-30T18:07:49.167Z,10.90
2018-03-30T18:10:16.967Z,10.80
2018-03-30T18:12:44.016Z,10.80
2018-03-30T18:15:11.026Z,10.80
2018-03-30T18:17:38.063Z,10.80
2018-03-30T18:20:05.084Z,10.70
2018-03-30T18:22:32.964Z,10.70
2018-03-30T18:25:00.839Z,10.70
2018-03-30T18:27:28.015Z,10.70
2018-03-30T18:29:55.083Z,10.60
2018-03-30T18:32:22.112Z,10.50
2018-03-30T18:34:49.943Z,10.20
2018-03-30T18:37:16.984Z,10.20
2018-03-30T18:39:44.036Z,10.10
2018-03-30T18:42:11.056Z,10.00
2018-03-30T18:44:38.112Z,9.90
2018-03-30T18:47:05.198Z,9.80
2018-03-30T18:49:33.040Z,9.60
2018-03-30T18:52:00.112Z,9.60
2018-03-30T18:54:27.173Z,9.60
2018-03-30T18:56:54.200Z,9.50
2018-03-30T18:59:21.249Z,9.50
2018-03-30T19:01:48.367Z,9.40
2018-03-30T19:04:15.415Z,9.40
2018-03-30T19:06:42.435Z,9.30
2018-03-30T19:09:09.455Z,9.20
2018-03-30T19:11:37.532Z,9.10
2018-03-30T19:14:05.416Z,8.90
2018-03-30T19:16:33.263Z,8.90
2018-03-30T19:19:00.360Z,8.80
2018-03-30T19:21:27.438Z,8.80
2018-03-30T19:23:54.463Z,8.70
2018-03-30T19:26:22.270Z,8.50
2018-03-30T19:28:49.297Z,8.50
2018-03-30T19:31:16.343Z,8.40
2018-03-30T19:33:43.622Z,8.40
2018-03-30T19:36:11.432Z,8.30
2018-03-30T19:38:38.450Z,8.30
2018-03-30T19:41:05.516Z,8.30
2018-03-30T19:43:32.574Z,8.20
2018-03-30T19:46:00.435Z,8.10
2018-03-30T19:48:27.515Z,8.10
2018-03-30T19:50:55.290Z,8.00
2018-03-30T19:53:23.097Z,8.00
2018-03-30T19:55:50.136Z,8.00
2018-03-30T19:58:17.179Z,7.90
2018-03-30T20:00:44.191Z,7.90
2018-03-30T20:03:11.777Z,7.80
2018-03-30T20:05:38.796Z,7.80
2018-03-30T20:08:06.259Z,7.80
2018-03-30T20:10:33.365Z,7.70
2018-03-30T20:13:00.507Z,7.70
2018-03-30T20:15:27.533Z,7.60
2018-03-30T20:17:55.339Z,7.60
2018-03-30T20:20:22.350Z,7.60
2018-03-30T20:22:49.408Z,7.60
2018-03-30T20:25:17.238Z,7.50
2018-03-30T20:27:44.274Z,7.50
2018-03-30T20:30:11.292Z,7.60
2018-03-30T20:32:38.309Z,7.60
2018-03-30T20:35:05.442Z,7.60
2018-03-30T20:37:33.247Z,7.60
2018-03-30T20:40:00.341Z,7.60
2018-03-30T20:42:27.367Z,7.60
2018-03-30T20:44:54.399Z,7.60
2018-03-30T20:47:22.220Z,7.50
2018-03-30T20:49:49.289Z,7.50
2018-03-30T20:52:16.323Z,7.50
2018-03-30T20:54:43.363Z,7.50
2018-03-30T20:57:10.384Z,7.50
2018-03-30T20:59:37.419Z,7.50
2018-03-30T21:02:04.451Z,7.40
2018-03-30T21:04:31.597Z,7.40
2018-03-30T21:06:58.699Z,7.40
2018-03-30T21:09:25.795Z,7.40
2018-03-30T21:11:52.811Z,7.40
2018-03-30T21:14:19.953Z,7.40
2018-03-30T21:16:46.969Z,7.40
2018-03-30T21:19:13.989Z,7.40
2018-03-30T21:21:41.023Z,7.30
2018-03-30T21:24:08.031Z,7.30
2018-03-30T21:26:35.088Z,7.30
2018-03-30T21:29:02.139Z,7.30
2018-03-30T21:31:29.211Z,7.30
2018-03-30T21:33:56.237Z,7.30
2018-03-30T21:36:23.279Z,7.20
2018-03-30T21:38:50.333Z,7.30
2018-03-30T21:41:17.404Z,7.20
2018-03-30T21:43:44.415Z,7.20
2018-03-30T21:46:11.468Z,7.20
2018-03-30T21:48:38.493Z,7.10
2018-03-30T21:51:05.567Z,7.10
2018-03-30T21:53:32.635Z,7.10
2018-03-30T21:55:59.720Z,7.10
2018-03-30T21:58:27.514Z,7.10
2018-03-30T22:00:54.587Z,7.10
2018-03-30T22:03:21.606Z,7.10
2018-03-30T22:05:48.643Z,7.00
2018-03-30T22:08:15.693Z,7.00
2018-03-30T22:10:42.713Z,7.00
2018-03-30T22:13:10.515Z,7.10
2018-03-30T22:15:37.538Z,7.10
2018-03-30T22:18:05.407Z,7.10
2018-03-30T22:20:32.460Z,7.10
2018-03-30T22:22:59.655Z,7.10
2018-03-30T22:25:26.688Z,7.10
2018-03-30T22:27:54.505Z,7.10
2018-03-30T22:30:21.531Z,7.10
2018-03-30T22:32:49.400Z,7.00
2018-03-30T22:35:17.181Z,7.10
2018-03-30T22:37:44.987Z,7.10
2018-03-30T22:40:12.004Z,7.00
2018-03-30T22:42:39.047Z,7.10
2018-03-30T22:45:06.072Z,7.10
2018-03-30T22:47:33.107Z,7.10
2018-03-30T22:50:00.182Z,7.10
2018-03-30T22:52:27.195Z,7.10
2018-03-30T22:54:54.235Z,7.00
2018-03-30T22:57:21.298Z,7.00
2018-03-30T22:59:48.335Z,7.00
2018-03-30T23:02:15.358Z,6.90
2018-03-30T23:04:43.155Z,6.90
2018-03-30T23:07:10.171Z,6.90
2018-03-30T23:09:37.223Z,6.90
2018-03-30T23:12:04.353Z,6.80
2018-03-30T23:14:31.409Z,6.80
2018-03-30T23:16:58.466Z,6.70
2018-03-30T23:19:25.511Z,6.70
2018-03-30T23:21:52.523Z,6.70
2018-03-30T23:24:19.598Z,6.60
2018-03-30T23:26:47.399Z,6.50
2018-03-30T23:29:14.416Z,6.50
2018-03-30T23:31:41.451Z,6.50
2018-03-30T23:34:08.468Z,6.50
2018-03-30T23:36:35.583Z,6.50
2018-03-30T23:39:02.661Z,6.50
2018-03-30T23:41:30.528Z,6.40
2018-03-30T23:43:58.391Z,6.40
2018-03-30T23:46:25.438Z,6.40
2018-03-30T23:48:52.470Z,6.40
2018-03-30T23:51:19.523Z,6.30
2018-03-30T23:53:46.535Z,6.30
2018-03-30T23:56:13.576Z,6.20
2018-03-30T23:58:40.592Z,6.20
